Time;durP1;ratioP1;P1;durP2;ratioP2;P2;SDS_P1;SDS_P2;PMS_P1;PMS_P2;Temp;Humidity;BMP_temperature;BMP_pressure;BME280_temperature;BME280_humidity;BME280_pressure;Samples;Min_cycle;Max_cycle;Signal;HPM_P1;HPM_P2
2023/09/18 00:00:11;;;;;;;;;;;;;;;22.47;100.00;100493.06;5200170;28;19913;-76
2023/09/18 00:02:42;;;;;;;;;;;;;;;22.46;100.00;100486.06;5182866;28;19972;-76
2023/09/18 00:05:15;;;;;;;;;;;;;;;22.43;100.00;100480.38;5184341;28;19922;-74
2023/09/18 00:07:46;;;;;;;;;;;;;;;22.41;100.00;100477.09;5199906;28;19975;-76
2023/09/18 00:10:18;;;;;;;;;;;;;;;22.41;100.00;100471.75;5198855;28;20351;-75
2023/09/18 00:12:49;;;;;;;;;;;;;;;22.41;100.00;100472.56;5198077;28;20012;-76
2023/09/18 00:15:20;;;;;;;;;;;;;;;22.41;100.00;100477.09;5199289;28;19917;-76
2023/09/18 00:17:51;;;;;;;;;;;;;;;22.40;100.00;100468.28;5200960;28;20375;-75
2023/09/18 00:20:26;;;;;;;;;;;;;;;22.41;100.00;100461.09;5198288;28;20437;-76
2023/09/18 00:23:13;;;;;;;;;;;;;;;22.39;100.00;100447.13;5284396;28;20393;-75
2023/09/18 00:25:44;;;;;;;;;;;;;;;22.39;100.00;100447.13;5285026;28;19920;-73
2023/09/18 00:28:15;;;;;;;;;;;;;;;22.39;100.00;100441.78;5284650;28;19923;-75
2023/09/18 00:30:48;;;;;;;;;;;;;;;22.37;100.00;100431.34;5284786;28;19917;-75
2023/09/18 00:33:20;;;;;;;;;;;;;;;22.38;100.00;100429.47;5280099;28;19956;-75
2023/09/18 00:35:51;;;;;;;;;;;;;;;22.38;100.00;100424.97;5282795;28;19985;-74
2023/09/18 00:38:23;;;;;;;;;;;;;;;22.40;100.00;100414.09;5278799;28;19921;-74
2023/09/18 00:40:54;;;;;;;;;;;;;;;22.39;100.00;100418.59;5280379;28;19923;-74
2023/09/18 00:43:25;;;;;;;;;;;;;;;22.39;100.00;100413.28;5284973;28;19935;-74
2023/09/18 00:45:56;;;;;;;;;;;;;;;22.39;100.00;100397.25;5279919;28;19916;-74
2023/09/18 00:48:28;;;;;;;;;;;;;;;22.40;100.00;100398.06;5280476;28;20157;-74
2023/09/18 00:51:00;;;;;;;;;;;;;;;22.38;100.00;100398.28;5287249;28;20352;-76
2023/09/18 00:53:31;;;;;;;;;;;;;;;22.39;100.00;100402.59;5324129;28;19920;-74
2023/09/18 00:56:03;;;;;;;;;;;;;;;22.40;100.00;100398.06;5323235;28;20430;-76
2023/09/18 00:58:35;;;;;;;;;;;;;;;22.39;100.00;100386.59;5330085;28;19926;-74
2023/09/18 01:01:06;;;;;;;;;;;;;;;22.39;100.00;100375.91;5322832;28;19920;-76
2023/09/18 01:03:37;;;;;;;;;;;;;;;22.41;100.00;100381.00;5331467;27;19919;-74
2023/09/18 01:06:08;;;;;;;;;;;;;;;22.40;100.00;100366.84;5324078;28;20240;-75
2023/09/18 01:08:39;;;;;;;;;;;;;;;22.40;100.00;100360.69;5325888;28;20012;-75
2023/09/18 01:11:19;;;;;;;;;;;;;;;22.38;100.00;100352.91;5325503;28;19926;-74
2023/09/18 01:14:10;;;;;;;;;;;;;;;22.37;100.00;100359.28;5306926;28;20288;-74
2023/09/18 01:16:45;;;;;;;;;;;;;;;22.39;100.00;100346.53;5308526;28;20288;-75
2023/09/18 01:19:16;;;;;;;;;;;;;;;22.42;100.00;100331.91;5325467;28;20445;-74
2023/09/18 01:21:48;;;;;;;;;;;;;;;22.41;100.00;100339.13;5325317;27;19931;-74
2023/09/18 01:24:19;;;;;;;;;;;;;;;22.42;100.00;100335.41;5323714;28;20190;-74
2023/09/18 01:26:50;;;;;;;;;;;;;;;22.43;100.00;100353.06;5325423;28;20399;-77
2023/09/18 01:29:21;;;;;;;;;;;;;;;22.42;100.00;100335.41;5325224;27;20471;-73
2023/09/18 01:31:53;;;;;;;;;;;;;;;22.45;100.00;100345.66;5320033;28;19927;-75
2023/09/18 01:34:36;;;;;;;;;;;;;;;22.44;100.00;100341.34;5310026;28;19912;-74
2023/09/18 01:37:09;;;;;;;;;;;;;;;22.46;100.00;100347.28;5309883;28;20011;-74
2023/09/18 01:39:41;;;;;;;;;;;;;;;22.44;100.00;100352.03;5310967;28;19942;-74
2023/09/18 01:42:12;;;;;;;;;;;;;;;22.45;100.00;100355.50;5312691;28;19920;-73
2023/09/18 01:44:44;;;;;;;;;;;;;;;22.46;100.00;100354.47;5305350;28;19919;-74
2023/09/18 01:47:17;;;;;;;;;;;;;;;22.46;100.00;100355.28;5306955;28;19935;-74
2023/09/18 01:49:49;;;;;;;;;;;;;;;22.47;100.00;100351.59;5311186;28;20388;-74
2023/09/18 01:52:20;;;;;;;;;;;;;;;22.50;100.00;100345.81;5312395;28;19918;-74
2023/09/18 01:54:52;;;;;;;;;;;;;;;22.50;100.00;100351.16;5307987;28;19916;-74
2023/09/18 01:57:23;;;;;;;;;;;;;;;22.53;100.00;100333.88;5307004;28;19973;-73
2023/09/18 01:59:54;;;;;;;;;;;;;;;22.55;100.00;100339.81;5309988;28;20314;-74
2023/09/18 02:02:25;;;;;;;;;;;;;;;22.57;100.00;100329.72;5311645;28;19926;-74
2023/09/18 02:04:56;;;;;;;;;;;;;;;22.57;100.00;100330.53;5309650;28;19920;-74
2023/09/18 02:07:28;;;;;;;;;;;;;;;22.61;100.00;100328.22;5309305;28;20010;-77
2023/09/18 02:09:59;;;;;;;;;;;;;;;22.61;100.00;100324.75;5282431;28;19959;-74
2023/09/18 02:12:30;;;;;;;;;;;;;;;22.61;100.00;100330.91;5293532;28;19924;-77
2023/09/18 02:15:05;;;;;;;;;;;;;;;22.60;100.00;100334.63;5310735;28;19927;-75
2023/09/18 02:17:37;;;;;;;;;;;;;;;22.62;100.00;100329.06;5310047;28;19977;-74
2023/09/18 02:20:11;;;;;;;;;;;;;;;22.66;100.00;100322.25;5311456;28;19920;-75
2023/09/18 02:22:46;;;;;;;;;;;;;;;22.67;100.00;100310.50;5311758;28;20177;-75
2023/09/18 02:25:17;;;;;;;;;;;;;;;22.69;100.00;100300.41;5306622;28;19916;-76
2023/09/18 02:27:49;;;;;;;;;;;;;;;22.69;100.00;100295.06;5312709;28;20409;-75
2023/09/18 02:30:20;;;;;;;;;;;;;;;22.69;100.00;100289.72;5309128;28;19999;-75
2023/09/18 02:32:52;;;;;;;;;;;;;;;22.68;100.00;100293.44;5307237;28;19951;-74
2023/09/18 02:35:23;;;;;;;;;;;;;;;22.68;100.00;100286.25;5307750;28;19919;-74
2023/09/18 02:37:54;;;;;;;;;;;;;;;22.67;100.00;100284.63;5313026;28;19916;-74
2023/09/18 02:40:27;;;;;;;;;;;;;;;22.67;100.00;100284.63;5314157;28;19924;-74
2023/09/18 02:42:58;;;;;;;;;;;;;;;22.66;100.00;100276.84;5310669;28;19924;-74
2023/09/18 02:45:29;;;;;;;;;;;;;;;22.66;100.00;100280.34;5305701;28;19916;-74
2023/09/18 02:48:00;;;;;;;;;;;;;;;22.65;100.00;100259.19;5311463;28;20357;-76
2023/09/18 02:50:31;;;;;;;;;;;;;;;22.63;100.00;100263.94;5308511;28;20404;-75
2023/09/18 02:53:03;;;;;;;;;;;;;;;22.59;100.00;100261.72;5308859;28;20330;-74
2023/09/18 02:55:34;;;;;;;;;;;;;;;22.58;100.00;100265.44;5309734;28;19916;-74
2023/09/18 02:58:05;;;;;;;;;;;;;;;22.55;100.00;100254.38;5307941;28;20372;-74
2023/09/18 03:00:43;;;;;;;;;;;;;;;22.56;100.00;100240.78;5310372;28;20323;-75
2023/09/18 03:03:14;;;;;;;;;;;;;;;22.58;100.00;100225.38;5308431;28;19931;-74
2023/09/18 03:05:46;;;;;;;;;;;;;;;22.61;100.00;100233.97;5307141;28;19912;-75
2023/09/18 03:08:17;;;;;;;;;;;;;;;22.62;100.00;100222.28;5304178;28;19924;-74
2023/09/18 03:10:48;;;;;;;;;;;;;;;22.65;100.00;100222.59;5305541;28;20285;-76
2023/09/18 03:13:19;;;;;;;;;;;;;;;22.65;100.00;100213.78;5306142;28;19981;-74
2023/09/18 03:15:50;;;;;;;;;;;;;;;22.65;100.00;100222.59;5309708;28;19911;-75
2023/09/18 03:18:22;;;;;;;;;;;;;;;22.66;100.00;100210.91;5313103;28;19912;-74
2023/09/18 03:20:53;;;;;;;;;;;;;;;22.69;100.00;100217.63;5305584;28;19970;-74
2023/09/18 03:23:24;;;;;;;;;;;;;;;22.68;100.00;100216.00;5310718;28;19919;-75
2023/09/18 03:25:55;;;;;;;;;;;;;;;22.68;100.00;100226.69;5311452;28;20607;-74
2023/09/18 03:28:27;;;;;;;;;;;;;;;22.68;100.00;100226.69;5311192;28;19918;-74
2023/09/18 03:30:58;;;;;;;;;;;;;;;22.69;100.00;100223.81;5306875;28;20363;-74
2023/09/18 03:33:29;;;;;;;;;;;;;;;22.70;100.00;100240.66;5305200;28;19925;-74
2023/09/18 03:36:00;;;;;;;;;;;;;;;22.67;100.00;100246.44;5309156;28;19920;-74
2023/09/18 03:38:32;;;;;;;;;;;;;;;22.64;100.00;100241.53;5311078;28;19935;-74
2023/09/18 03:41:03;;;;;;;;;;;;;;;22.63;100.00;100235.38;5308281;28;19919;-75
2023/09/18 03:43:38;;;;;;;;;;;;;;;22.58;100.00;100225.38;5304544;28;19942;-74
2023/09/18 03:46:09;;;;;;;;;;;;;;;22.59;100.00;100244.88;5306332;28;19927;-74
2023/09/18 03:48:40;;;;;;;;;;;;;;;22.55;100.00;100247.19;5304956;28;19970;-77
2023/09/18 03:51:15;;;;;;;;;;;;;;;22.54;100.00;100236.72;5308722;28;20381;-74
2023/09/18 03:53:48;;;;;;;;;;;;;;;22.53;100.00;100238.56;5304777;28;19916;-74
2023/09/18 03:56:19;;;;;;;;;;;;;;;22.53;100.00;100229.75;5288080;28;19922;-74
2023/09/18 03:58:51;;;;;;;;;;;;;;;22.55;100.00;100233.84;5303923;28;20038;-74
2023/09/18 04:01:22;;;;;;;;;;;;;;;22.54;100.00;100240.22;5304721;28;20450;-74
2023/09/18 04:03:54;;;;;;;;;;;;;;;22.56;100.00;100251.47;5305988;28;20149;-74
2023/09/18 04:06:25;;;;;;;;;;;;;;;22.54;100.00;100266.06;5309306;28;19966;-75
2023/09/18 04:08:56;;;;;;;;;;;;;;;22.49;100.00;100271.28;5304830;28;19946;-74
2023/09/18 04:11:32;;;;;;;;;;;;;;;22.50;100.00;100268.41;5308357;28;19923;-76
2023/09/18 04:14:03;;;;;;;;;;;;;;;22.46;100.00;100253.03;5305850;28;19926;-75
2023/09/18 04:16:35;;;;;;;;;;;;;;;22.46;100.00;100251.16;5308853;28;20296;-74
2023/09/18 04:19:06;;;;;;;;;;;;;;;22.44;100.00;100250.59;5306341;28;19916;-74
2023/09/18 04:21:37;;;;;;;;;;;;;;;22.44;100.00;100236.44;5290879;28;19930;-74
2023/09/18 04:24:08;;;;;;;;;;;;;;;22.45;100.00;100235.38;5307266;28;20388;-74
2023/09/18 04:26:40;;;;;;;;;;;;;;;22.43;100.00;100218.81;5303321;28;19965;-74
2023/09/18 04:29:11;;;;;;;;;;;;;;;22.44;100.00;100228.44;5310499;28;19920;-74
2023/09/18 04:31:42;;;;;;;;;;;;;;;22.43;100.00;100227.63;5302449;28;19919;-74
2023/09/18 04:34:14;;;;;;;;;;;;;;;22.44;100.00;100221.22;5302426;28;19920;-74
2023/09/18 04:36:45;;;;;;;;;;;;;;;22.45;100.00;100214.84;5303966;28;19916;-74
2023/09/18 04:39:16;;;;;;;;;;;;;;;22.45;100.00;100201.50;5305724;28;19932;-74
2023/09/18 04:41:47;;;;;;;;;;;;;;;22.46;100.00;100189.78;5305652;28;19920;-74
2023/09/18 04:44:19;;;;;;;;;;;;;;;22.44;100.00;100172.38;5306870;28;19920;-74
2023/09/18 04:46:50;;;;;;;;;;;;;;;22.44;100.00;100165.19;5302310;28;20006;-74
2023/09/18 04:49:21;;;;;;;;;;;;;;;22.46;100.00;100167.63;5306748;28;19920;-74
2023/09/18 04:51:52;;;;;;;;;;;;;;;22.42;100.00;100156.56;5307843;28;19922;-74
2023/09/18 04:54:24;;;;;;;;;;;;;;;22.42;100.00;100159.25;5304468;28;19981;-74
2023/09/18 04:56:55;;;;;;;;;;;;;;;22.41;100.00;100167.47;5305507;28;19927;-74
2023/09/18 04:59:26;;;;;;;;;;;;;;;22.38;100.00;100158.06;5306811;28;19968;-75
2023/09/18 05:01:58;;;;;;;;;;;;;;;22.36;100.00;100157.47;5306761;28;19919;-74
2023/09/18 05:04:29;;;;;;;;;;;;;;;22.37;100.00;100152.97;5303410;28;19919;-76
2023/09/18 05:07:02;;;;;;;;;;;;;;;22.35;100.00;100147.84;5303454;28;20011;-77
2023/09/18 05:09:34;;;;;;;;;;;;;;;22.32;100.00;100151.78;5313785;28;20299;-75
2023/09/18 05:12:08;;;;;;;;;;;;;;;22.29;100.00;100160.22;5303903;28;20019;-74
2023/09/18 05:14:40;;;;;;;;;;;;;;;22.23;100.00;100165.63;5304593;28;20018;-74
2023/09/18 05:17:14;;;;;;;;;;;;;;;22.23;100.00;100170.97;5307843;28;19999;-75
2023/09/18 05:19:45;;;;;;;;;;;;;;;22.14;100.00;100177.66;5314179;28;19916;-74
2023/09/18 05:22:16;;;;;;;;;;;;;;;22.11;100.00;100178.88;5309215;28;19973;-74
2023/09/18 05:24:47;;;;;;;;;;;;;;;22.10;100.00;100175.41;5309521;28;19923;-74
2023/09/18 05:27:19;;;;;;;;;;;;;;;22.04;100.00;100186.13;5311351;28;19947;-77
2023/09/18 05:29:50;;;;;;;;;;;;;;;22.04;100.00;100178.13;5310523;28;19920;-74
2023/09/18 05:32:21;;;;;;;;;;;;;;;22.07;100.00;100172.34;5310425;28;20102;-75
2023/09/18 05:34:52;;;;;;;;;;;;;;;22.10;100.00;100167.38;5303737;28;19927;-74
2023/09/18 05:37:24;;;;;;;;;;;;;;;22.13;100.00;100166.13;5306847;28;19959;-74
2023/09/18 05:39:55;;;;;;;;;;;;;;;22.15;100.00;100180.09;5310392;28;19926;-74
2023/09/18 05:42:26;;;;;;;;;;;;;;;22.13;100.00;100170.66;5311304;28;19928;-75
2023/09/18 05:44:58;;;;;;;;;;;;;;;22.13;100.00;100176.00;5309267;28;20383;-76
2023/09/18 05:47:32;;;;;;;;;;;;;;;22.06;100.00;100176.06;5311637;28;19924;-75
2023/09/18 05:50:07;;;;;;;;;;;;;;;22.00;100.00;100188.41;5305852;28;20034;-73
2023/09/18 05:52:39;;;;;;;;;;;;;;;22.00;100.00;100192.94;5313541;28;20174;-74
2023/09/18 05:55:11;;;;;;;;;;;;;;;21.97;100.00;100193.38;5307934;28;20018;-73
2023/09/18 05:57:42;;;;;;;;;;;;;;;21.99;100.00;100188.66;5309562;28;19924;-73
2023/09/18 06:00:13;;;;;;;;;;;;;;;21.95;100.00;100201.63;5310249;28;19915;-75
2023/09/18 06:02:45;;;;;;;;;;;;;;;21.96;100.00;100205.09;5311218;28;19916;-73
2023/09/18 06:05:17;;;;;;;;;;;;;;;21.95;100.00;100200.81;5306492;28;20361;-73
2023/09/18 06:07:48;;;;;;;;;;;;;;;21.87;100.00;100207.25;5306643;28;19916;-73
2023/09/18 06:10:20;;;;;;;;;;;;;;;21.89;100.00;100207.81;5306989;28;19931;-74
2023/09/18 06:12:52;;;;;;;;;;;;;;;21.92;100.00;100214.56;5303277;28;20674;-73
2023/09/18 06:15:23;;;;;;;;;;;;;;;21.91;100.00;100215.63;5308333;28;19962;-73
2023/09/18 06:17:54;;;;;;;;;;;;;;;21.81;100.00;100213.44;5308242;28;19923;-74
2023/09/18 06:20:25;;;;;;;;;;;;;;;21.86;100.00;100211.75;5304471;28;19924;-74
2023/09/18 06:22:56;;;;;;;;;;;;;;;21.91;100.00;100213.75;5307888;28;19927;-74
2023/09/18 06:25:28;;;;;;;;;;;;;;;21.90;100.00;100216.66;5307826;28;19924;-73
2023/09/18 06:28:00;;;;;;;;;;;;;;;21.86;100.00;100227.75;5287261;28;20003;-74
2023/09/18 06:30:33;;;;;;;;;;;;;;;21.85;100.00;100233.28;5307105;28;19920;-74
2023/09/18 06:33:04;;;;;;;;;;;;;;;21.82;100.00;100217.72;5301932;28;20407;-74
2023/09/18 06:35:35;;;;;;;;;;;;;;;21.84;100.00;100221.00;5301803;28;19977;-72
2023/09/18 06:38:06;;;;;;;;;;;;;;;21.76;100.00;100230.09;5308289;28;19942;-72
2023/09/18 06:40:38;;;;;;;;;;;;;;;21.69;100.00;100239.19;5309226;28;20404;-72
2023/09/18 06:43:09;;;;;;;;;;;;;;;21.85;100.00;100241.28;5303691;28;20384;-76
2023/09/18 06:45:40;;;;;;;;;;;;;;;21.85;100.00;100241.28;5307793;28;19924;-72
2023/09/18 06:48:11;;;;;;;;;;;;;;;21.91;100.00;100237.75;5305372;28;19912;-73
2023/09/18 06:50:42;;;;;;;;;;;;;;;21.95;100.00;100248.81;5306345;28;20305;-72
2023/09/18 06:53:14;;;;;;;;;;;;;;;21.95;100.00;100248.81;5309032;28;19916;-76
2023/09/18 06:55:45;;;;;;;;;;;;;;;21.96;100.00;100271.78;5305498;28;19958;-72
2023/09/18 06:58:16;;;;;;;;;;;;;;;22.00;100.00;100259.63;5312021;28;20358;-72
2023/09/18 07:00:50;;;;;;;;;;;;;;;22.04;100.00;100261.63;5307055;28;20350;-74
2023/09/18 07:03:21;;;;;;;;;;;;;;;22.06;100.00;100274.75;5292230;28;19951;-72
2023/09/18 07:05:53;;;;;;;;;;;;;;;22.03;100.00;100261.84;5303421;28;19970;-72
2023/09/18 07:08:24;;;;;;;;;;;;;;;21.95;100.00;100243.47;5308042;28;19962;-73
2023/09/18 07:10:55;;;;;;;;;;;;;;;22.03;100.00;100257.34;5303882;28;19935;-72
2023/09/18 07:13:26;;;;;;;;;;;;;;;22.07;100.00;100274.53;5305569;28;19916;-72
2023/09/18 07:15:57;;;;;;;;;;;;;;;22.08;100.00;100267.34;5302645;28;20002;-75
2023/09/18 07:18:29;;;;;;;;;;;;;;;22.10;100.00;100258.09;5307724;28;20296;-72
2023/09/18 07:21:00;;;;;;;;;;;;;;;22.14;100.00;100268.38;5303175;28;20471;-77
2023/09/18 07:23:32;;;;;;;;;;;;;;;22.11;100.00;100273.06;5308992;28;19930;-72
2023/09/18 07:26:03;;;;;;;;;;;;;;;22.09;100.00;100272.47;5305540;28;20008;-74
2023/09/18 07:28:34;;;;;;;;;;;;;;;22.13;100.00;100261.38;5306493;28;19912;-72
2023/09/18 07:31:06;;;;;;;;;;;;;;;22.12;100.00;100281.88;5304501;28;20280;-72
2023/09/18 07:33:37;;;;;;;;;;;;;;;22.14;100.00;100282.50;5292293;28;19918;-74
2023/09/18 07:36:10;;;;;;;;;;;;;;;22.20;100.00;100272.81;5307435;28;19920;-72
2023/09/18 07:38:43;;;;;;;;;;;;;;;22.25;100.00;100279.13;5306397;28;19927;-75
2023/09/18 07:41:15;;;;;;;;;;;;;;;22.24;100.00;100282.03;5290052;28;19922;-72
2023/09/18 07:43:46;;;;;;;;;;;;;;;22.25;100.00;100280.97;5305690;28;19971;-72
2023/09/18 07:46:18;;;;;;;;;;;;;;;22.34;100.00;100287.66;5305153;28;19951;-73
2023/09/18 07:48:49;;;;;;;;;;;;;;;22.34;100.00;100282.31;5284915;28;19980;-72
2023/09/18 07:51:20;;;;;;;;;;;;;;;22.32;100.00;100285.22;5310489;28;19972;-77
2023/09/18 07:53:52;;;;;;;;;;;;;;;22.37;100.00;100279.22;5310118;28;20297;-74
2023/09/18 07:56:23;;;;;;;;;;;;;;;22.32;100.00;100287.06;5290858;28;19923;-71
2023/09/18 07:58:54;;;;;;;;;;;;;;;22.40;100.00;100280.63;5309384;28;19920;-72
2023/09/18 08:01:25;;;;;;;;;;;;;;;22.44;100.00;100274.63;5305944;28;20383;-72
2023/09/18 08:03:59;;;;;;;;;;;;;;;22.39;100.00;100269.13;5305072;28;19969;-72
2023/09/18 08:06:30;;;;;;;;;;;;;;;22.34;100.00;100274.31;5302417;28;19949;-73
2023/09/18 08:09:01;;;;;;;;;;;;;;;22.40;100.00;100292.13;5304205;28;20396;-72
2023/09/18 08:11:33;;;;;;;;;;;;;;;22.40;100.00;100289.44;5310084;28;19916;-73
2023/09/18 08:14:04;;;;;;;;;;;;;;;22.40;100.00;100297.47;5299291;28;19926;-73
2023/09/18 08:16:37;;;;;;;;;;;;;;;22.37;100.00;100279.22;5306109;28;20357;-72
2023/09/18 08:19:09;;;;;;;;;;;;;;;22.40;100.00;100291.31;5309405;28;20468;-74
2023/09/18 08:21:40;;;;;;;;;;;;;;;22.41;100.00;100293.75;5311578;28;20352;-76
2023/09/18 08:24:11;;;;;;;;;;;;;;;22.44;100.00;100301.31;5304484;28;20817;-73
2023/09/18 08:26:42;;;;;;;;;;;;;;;22.46;100.00;100301.88;5307785;28;19915;-72
2023/09/18 08:29:14;;;;;;;;;;;;;;;22.46;100.00;100304.56;5286893;28;19913;-74
2023/09/18 08:31:45;;;;;;;;;;;;;;;22.48;100.00;100299.00;5310605;28;19915;-74
2023/09/18 08:34:16;;;;;;;;;;;;;;;22.62;100.00;100318.38;5308692;28;19927;-73
2023/09/18 08:36:48;;;;;;;;;;;;;;;22.65;100.00;100324.06;5303110;28;19919;-74
2023/09/18 08:39:20;;;;;;;;;;;;;;;22.61;100.00;100322.06;5307586;28;19927;-76
2023/09/18 08:41:56;;;;;;;;;;;;;;;22.72;100.00;100330.16;5302958;28;19966;-73
2023/09/18 08:44:27;;;;;;;;;;;;;;;22.79;100.00;100324.75;5308760;28;19922;-76
2023/09/18 08:46:58;;;;;;;;;;;;;;;22.72;100.00;100334.69;5306938;28;20014;-74
2023/09/18 08:49:30;;;;;;;;;;;;;;;22.81;100.00;100323.50;5313221;28;19919;-73
2023/09/18 08:52:01;;;;;;;;;;;;;;;22.85;100.00;100323.06;5295201;28;20385;-73
2023/09/18 08:54:33;;;;;;;;;;;;;;;22.96;100.00;100325.81;5313898;28;19923;-73
2023/09/18 08:57:07;;;;;;;;;;;;;;;23.11;100.00;100322.75;5305986;28;19970;-77
2023/09/18 08:59:39;;;;;;;;;;;;;;;23.11;100.00;100328.09;5312163;28;19911;-73
2023/09/18 09:02:11;;;;;;;;;;;;;;;23.20;100.00;100326.75;5313636;28;20369;-73
2023/09/18 09:04:42;;;;;;;;;;;;;;;23.24;100.00;100324.44;5310633;28;19915;-76
2023/09/18 09:07:13;;;;;;;;;;;;;;;23.34;100.00;100322.03;5309510;28;19923;-72
2023/09/18 09:09:45;;;;;;;;;;;;;;;23.34;100.00;100322.03;5303560;28;20335;-73
2023/09/18 09:12:36;;;;;;;;;;;;;;;23.30;100.00;100324.34;5303045;28;20407;-73
2023/09/18 09:15:07;;;;;;;;;;;;;;;23.50;100.00;100329.41;5312582;28;19919;-72
2023/09/18 09:17:38;;;;;;;;;;;;;;;23.53;100.00;100341.53;5311918;28;20407;-76
2023/09/18 09:20:13;;;;;;;;;;;;;;;23.54;100.00;100335.13;5312924;28;20363;-72
2023/09/18 09:22:44;;;;;;;;;;;;;;;23.50;100.00;100341.97;5310554;28;19984;-72
2023/09/18 09:25:26;;;;;;;;;;;;;;;23.59;100.00;100348.63;5307039;28;19978;-75
2023/09/18 09:27:58;;;;;;;;;;;;;;;23.76;100.00;100356.84;5311899;28;20011;-76
2023/09/18 09:30:30;;;;;;;;;;;;;;;23.79;100.00;100356.41;5289494;28;19989;-72
2023/09/18 09:33:04;;;;;;;;;;;;;;;23.77;100.00;100351.25;5313808;28;19912;-75
2023/09/18 09:35:36;;;;;;;;;;;;;;;23.93;100.00;100359.66;5304582;28;20383;-72
2023/09/18 09:38:11;;;;;;;;;;;;;;;24.13;100.00;100359.34;5310690;28;19920;-72
2023/09/18 09:40:43;;;;;;;;;;;;;;;24.14;100.00;100363.66;5305383;28;20498;-73
2023/09/18 09:43:14;;;;;;;;;;;;;;;24.12;100.00;100353.19;5310958;28;19925;-72
2023/09/18 09:45:46;;;;;;;;;;;;;;;24.16;100.00;100351.66;5312134;28;19923;-72
2023/09/18 09:48:17;;;;;;;;;;;;;;;24.18;100.00;100338.06;5307870;28;20179;-72
2023/09/18 09:50:48;;;;;;;;;;;;;;;24.22;100.00;100340.03;5308966;28;19949;-73
2023/09/18 09:53:39;;;;;;;;;;;;;;;24.22;100.00;100349.94;5310321;28;19924;-73
2023/09/18 09:56:11;;;;;;;;;;;;;;;24.19;100.00;100342.38;5314545;28;19920;-76
2023/09/18 09:58:43;;;;;;;;;;;;;;;24.23;100.00;100351.56;5311776;28;19927;-72
2023/09/18 10:01:17;;;;;;;;;;;;;;;24.22;100.00;100361.47;5293965;28;19912;-72
2023/09/18 10:03:49;;;;;;;;;;;;;;;24.21;100.00;100362.50;5310909;28;19916;-74
2023/09/18 10:06:21;;;;;;;;;;;;;;;24.24;100.00;100371.91;5306155;28;20449;-72
2023/09/18 10:08:53;;;;;;;;;;;;;;;24.33;100.00;100364.38;5313812;28;20395;-73
2023/09/18 10:11:25;;;;;;;;;;;;;;;24.37;100.00;100368.22;5307056;28;19926;-74
2023/09/18 10:14:02;;;;;;;;;;;;;;;24.37;100.00;100369.03;5304378;28;19920;-72
2023/09/18 10:16:35;;;;;;;;;;;;;;;24.38;100.00;100369.84;5310071;28;20583;-72
2023/09/18 10:19:08;;;;;;;;;;;;;;;24.39;100.00;100366.16;5305499;28;19955;-72
2023/09/18 10:21:44;;;;;;;;;;;;;;;24.52;100.00;100366.72;5310871;28;19955;-74
2023/09/18 10:24:37;;;;;;;;;;;;;;;24.67;100.00;100363.59;5312348;28;19931;-73
2023/09/18 10:27:11;;;;;;;;;;;;;;;24.85;100.00;100370.66;5306337;28;19916;-72
2023/09/18 10:29:44;;;;;;;;;;;;;;;24.89;100.00;100371.81;5313984;28;19963;-72
2023/09/18 10:32:17;;;;;;;;;;;;;;;24.83;100.00;100378.13;5307921;28;20403;-75
2023/09/18 10:34:48;;;;;;;;;;;;;;;24.88;100.00;100372.84;5309292;28;19964;-72
2023/09/18 10:37:20;;;;;;;;;;;;;;;24.83;100.00;100377.31;5306013;28;19919;-75
2023/09/18 10:39:53;;;;;;;;;;;;;;;24.71;100.00;100371.97;5308137;28;20381;-72
2023/09/18 10:42:24;;;;;;;;;;;;;;;24.65;100.00;100386.28;5312424;28;19959;-74
2023/09/18 10:44:55;;;;;;;;;;;;;;;24.55;100.00;100376.19;5314154;28;19963;-72
2023/09/18 10:47:27;;;;;;;;;;;;;;;24.49;100.00;100380.59;5300981;28;20006;-73
2023/09/18 10:49:58;;;;;;;;;;;;;;;24.51;100.00;100375.81;5307645;28;20050;-72
2023/09/18 10:52:30;;;;;;;;;;;;;;;24.45;100.00;100379.41;5310115;28;19920;-72
2023/09/18 10:55:05;;;;;;;;;;;;;;;24.34;100.00;100368.69;5307468;28;19916;-73
2023/09/18 10:57:37;;;;;;;;;;;;;;;24.42;100.00;100366.50;5303745;28;20015;-72
2023/09/18 11:00:15;;;;;;;;;;;;;;;24.51;100.00;100361.63;5309865;28;20281;-72
2023/09/18 11:02:46;;;;;;;;;;;;;;;24.49;100.00;100353.81;5306249;28;19924;-72
2023/09/18 11:05:30;;;;;;;;;;;;;;;24.61;100.00;100367.19;5307557;28;20407;-75
2023/09/18 11:08:20;;;;;;;;;;;;;;;24.73;100.00;100365.31;5305171;28;21723;-74
2023/09/18 11:11:09;;;;;;;;;;;;;;;24.89;100.00;100357.59;5306355;28;19920;-72
2023/09/18 11:13:41;;;;;;;;;;;;;;;25.09;100.00;100360.69;5287853;28;19916;-73
2023/09/18 11:16:14;;;;;;;;;;;;;;;25.27;100.00;100361.59;5292729;28;19972;-72
2023/09/18 11:18:51;;;;;;;;;;;;;;;25.09;100.00;100376.78;5303177;28;19920;-72
2023/09/18 11:21:24;;;;;;;;;;;;;;;25.00;100.00;100378.19;5306872;28;21857;-73
2023/09/18 11:24:04;;;;;;;;;;;;;;;25.09;100.00;100373.28;5307563;28;19934;-72
2023/09/18 11:26:36;;;;;;;;;;;;;;;25.08;100.00;100361.75;5306656;28;19923;-75
2023/09/18 11:29:10;;;;;;;;;;;;;;;25.13;100.00;100361.06;5307194;28;20377;-71
2023/09/18 11:31:43;;;;;;;;;;;;;;;25.31;100.00;100358.22;5303610;28;19955;-72
2023/09/18 11:34:37;;;;;;;;;;;;;;;25.45;100.00;100364.91;5308424;28;20490;-73
2023/09/18 11:37:21;;;;;;;;;;;;;;;25.57;98.73;100374.75;5304318;28;19920;-72
2023/09/18 11:39:52;;;;;;;;;;;;;;;25.57;96.06;100375.59;5307560;28;19916;-75
2023/09/18 11:42:26;;;;;;;;;;;;;;;25.55;96.34;100361.59;5307400;28;20429;-71
2023/09/18 11:44:58;;;;;;;;;;;;;;;25.43;94.83;100367.00;5308577;28;19919;-72
2023/09/18 11:47:29;;;;;;;;;;;;;;;25.17;90.59;100362.22;5308345;28;19920;-73
2023/09/18 11:50:01;;;;;;;;;;;;;;;25.21;96.39;100369.53;5302665;28;19920;-74
2023/09/18 11:52:34;;;;;;;;;;;;;;;25.26;98.44;100359.97;5300916;28;20010;-73
2023/09/18 11:55:06;;;;;;;;;;;;;;;25.44;100.00;100355.22;5301502;28;19930;-72
2023/09/18 11:57:37;;;;;;;;;;;;;;;25.62;99.68;100354.22;5306294;28;20070;-72
2023/09/18 12:00:22;;;;;;;;;;;;;;;25.78;96.66;100344.59;5309687;28;19916;-72
2023/09/18 12:02:55;;;;;;;;;;;;;;;25.91;96.33;100341.59;5300178;28;19923;-72
2023/09/18 12:05:26;;;;;;;;;;;;;;;26.08;93.91;100343.47;5301450;28;19938;-72
2023/09/18 12:07:57;;;;;;;;;;;;;;;26.15;86.63;100336.88;5301732;28;21035;-73
2023/09/18 12:10:29;;;;;;;;;;;;;;;26.06;84.39;100350.94;5305823;28;20058;-72
2023/09/18 12:13:00;;;;;;;;;;;;;;;25.93;85.37;100349.41;5306430;28;19920;-72
2023/09/18 12:15:33;;;;;;;;;;;;;;;26.00;88.13;100338.50;5305378;28;19915;-72
2023/09/18 12:18:05;;;;;;;;;;;;;;;26.14;91.77;100340.63;5305831;28;19920;-75
2023/09/18 12:20:37;;;;;;;;;;;;;;;26.28;88.60;100329.53;5308577;28;20377;-73
2023/09/18 12:23:08;;;;;;;;;;;;;;;26.42;87.77;100326.25;5307153;28;19926;-76
2023/09/18 12:25:40;;;;;;;;;;;;;;;26.40;80.37;100333.75;5306541;28;19993;-73
2023/09/18 12:28:14;;;;;;;;;;;;;;;26.57;82.86;100335.59;5301678;28;19916;-72
2023/09/18 12:30:46;;;;;;;;;;;;;;;26.67;83.01;100333.06;5300614;28;19920;-75
2023/09/18 12:33:17;;;;;;;;;;;;;;;26.77;80.93;100329.69;5306215;28;19924;-72
2023/09/18 12:35:49;;;;;;;;;;;;;;;26.75;76.29;100335.31;5305671;28;19980;-74
2023/09/18 12:38:24;;;;;;;;;;;;;;;26.74;76.48;100339.03;5307268;28;20327;-74
2023/09/18 12:40:56;;;;;;;;;;;;;;;26.85;79.12;100340.00;5304244;28;19949;-73
2023/09/18 12:43:29;;;;;;;;;;;;;;;26.93;78.21;100331.47;5302834;28;19924;-73
2023/09/18 12:46:01;;;;;;;;;;;;;;;26.95;73.79;100329.38;5305672;28;19920;-74
2023/09/18 12:48:36;;;;;;;;;;;;;;;27.07;76.83;100326.53;5299620;28;19916;-73
2023/09/18 12:51:07;;;;;;;;;;;;;;;27.07;74.59;100321.16;5304199;28;20329;-73
2023/09/18 12:53:39;;;;;;;;;;;;;;;26.92;71.73;100311.84;5309281;28;20015;-75